Accueil
METAR-TAF:

METAR-TAF

Aéroports :

Dole, France

Aéroport de Dole-Jura

latitude: 47-02-34N, longitude: 005-26-06E, altitude: 196 m

Observation

Le bulletin a été fait il y a 35 minutes, à 00:00 UTC
Vent 12 kt de nord-est
Température -1°C
Humidité 74%
Pression 1011 hPa
Visibilité: 8000 m

METAR: LFGJ 240000Z AUTO 05012KT 8000 NSC M01/M05 Q1011

Heure: 01:35 (00:35 UTC)

Prévision

Le bulletin a été fait il y a 10 heures et 35 minutes, à 14:00 UTC
Prévision valable du 23 à 15 UTC au 23 à 24 UTC
Vent 15 kt de nord/nord-est avec des rafales jusqu'à 25 kt
Visibilité 10 km ou plus
Nuages fragmentés à une hauteur de 4000 ft
Temporairement
du 23 à 15 UTC au 23 à 24 UTC
Visibilité 10 km ou plus
pas de nuages en-dessous de 1500 mètres et pas de cumulonimbus.

TAF: LFGJ 231400Z 2315/2324 03015G25KT 9999 BKN040 TEMPO 2315/2324 CAVOK

Observations et prévisions météorologiques de plus de 4000 aéroports (messages METAR et TAF).

Les stations disponibles sont représentées par des disques jaunes et rouges sur la carte.

Passer la souris dessus pour voir le nom de la station.

Cliquer dessus pour voir les observations et prévisions météorologiques.

Pour changer de carte: cliquez sur les boutons verts avec une croix noire pour zoomer, sur le bouton vert avec un tiret pour effectuer un zoom arrière, ou sur les flèches vertes pour les cartes adjacentes.


METAR-TAF: